Time;durP1;ratioP1;P1;durP2;ratioP2;P2;SDS_P1;SDS_P2;PMS_P1;PMS_P2;Temp;Humidity;BMP_temperature;BMP_pressure;BME280_temperature;BME280_humidity;BME280_pressure;Samples;Min_cycle;Max_cycle;Signal;HPM_P1;HPM_P2
2021/12/15 00:01:46;;;;;;;108.50;30.05;;;9.60;99.90;;;;;;4973212;28;20097;-76
2021/12/15 00:04:14;;;;;;;115.38;36.55;;;9.60;99.90;;;;;;4938942;28;20090;-78
2021/12/15 00:06:40;;;;;;;113.93;34.33;;;9.60;99.90;;;;;;4971789;28;20059;-77
2021/12/15 00:09:09;;;;;;;111.57;33.20;;;9.60;99.90;;;;;;4955396;28;20066;-75
2021/12/15 00:11:37;;;;;;;100.97;31.00;;;9.60;99.90;;;;;;4972761;28;20051;-75
2021/12/15 00:14:09;;;;;;;103.68;33.33;;;9.60;99.90;;;;;;4953893;28;20050;-82
2021/12/15 00:16:36;;;;;;;109.82;32.55;;;9.70;99.90;;;;;;4955765;28;20114;-75
2021/12/15 00:19:03;;;;;;;106.05;32.10;;;9.70;99.90;;;;;;4955876;28;20051;-83
2021/12/15 00:21:29;;;;;;;102.63;31.15;;;9.60;99.90;;;;;;4971283;28;20489;-75
2021/12/15 00:23:55;;;;;;;;;;;9.70;99.90;;;;;;4973553;28;20167;-80
2021/12/15 00:26:20;;;;;;;100.97;29.10;;;9.60;99.90;;;;;;4971869;28;20124;-77
2021/12/15 00:28:47;;;;;;;116.18;32.97;;;9.60;99.90;;;;;;4955958;28;20051;-77
2021/12/15 00:31:13;;;;;;;89.15;28.70;;;9.70;99.90;;;;;;4954732;28;20074;-76
2021/12/15 00:33:41;;;;;;;104.57;31.20;;;9.70;99.90;;;;;;4954654;28;20100;-76
2021/12/15 00:36:08;;;;;;;97.82;31.05;;;9.60;99.90;;;;;;4971114;28;20086;-76
2021/12/15 00:38:35;;;;;;;89.15;28.70;;;9.70;99.90;;;;;;4971988;28;20408;-77
2021/12/15 00:41:01;;;;;;;101.90;29.23;;;9.70;99.90;;;;;;4972217;28;20062;-75
2021/12/15 00:43:27;;;;;;;;;;;9.70;99.90;;;;;;4972920;28;20055;-76
2021/12/15 00:45:53;;;;;;;103.65;29.85;;;9.70;99.90;;;;;;4939495;28;19949;-75
2021/12/15 00:48:19;;;;;;;88.18;27.00;;;9.70;99.90;;;;;;4954897;28;20046;-75
2021/12/15 00:50:46;;;;;;;106.50;30.70;;;9.70;99.90;;;;;;4939271;28;20043;-75
2021/12/15 00:53:12;;;;;;;93.22;28.52;;;9.70;99.90;;;;;;4953388;28;20046;-75
2021/12/15 00:55:38;;;;;;;;;;;9.70;99.90;;;;;;4951960;28;20047;-75
2021/12/15 00:58:05;;;;;;;98.50;25.95;;;9.70;99.90;;;;;;4935564;29;20669;-83
2021/12/15 01:00:41;;;;;;;100.20;28.83;;;9.70;99.90;;;;;;4951557;28;20062;-76
2021/12/15 01:03:07;;;;;;;104.32;31.70;;;9.70;99.90;;;;;;4938218;28;20416;-77
2021/12/15 01:05:37;;;;;;;115.60;33.22;;;9.70;99.90;;;;;;4954972;28;20100;-78
2021/12/15 01:08:06;;;;;;;104.93;30.92;;;9.70;99.90;;;;;;4970987;28;20047;-82
2021/12/15 01:21:37;;;;;;;126.18;30.83;;;9.70;99.90;;;;;;4952964;28;20077;-78
2021/12/15 01:24:03;;;;;;;107.57;28.73;;;9.70;99.90;;;;;;4954770;28;20083;-79
2021/12/15 01:26:29;;;;;;;119.97;30.65;;;9.70;99.90;;;;;;4937992;28;20481;-76
2021/12/15 01:28:55;;;;;;;119.97;29.27;;;9.70;99.90;;;;;;4971985;28;20051;-75
2021/12/15 01:31:21;;;;;;;122.97;31.90;;;9.70;99.90;;;;;;4970878;28;20051;-77
2021/12/15 01:33:47;;;;;;;106.28;28.50;;;9.60;99.90;;;;;;4971792;28;20089;-77
2021/12/15 01:36:12;;;;;;;117.82;29.90;;;9.70;99.90;;;;;;4937394;28;20058;-77
2021/12/15 01:38:41;;;;;;;107.32;29.10;;;9.70;99.90;;;;;;4951385;28;20393;-78
2021/12/15 01:41:08;;;;;;;109.25;29.40;;;9.70;99.90;;;;;;4970675;28;20543;-83
2021/12/15 01:46:53;;;;;;;100.25;27.08;;;9.70;99.90;;;;;;4954471;28;20447;-76
2021/12/15 01:46:57;;;;;;;100.55;27.48;;;9.70;99.90;;;;;;4934549;29;20066;-76
2021/12/15 01:49:37;;;;;;;94.10;23.75;;;9.70;99.90;;;;;;4920282;29;20054;-75
2021/12/15 01:52:26;;;;;;;91.85;24.13;;;9.70;99.90;;;;;;4933453;29;20165;-76
2021/12/15 01:54:56;;;;;;;107.75;29.48;;;9.70;99.90;;;;;;4951410;29;20169;-75
2021/12/15 01:57:24;;;;;;;92.00;24.95;;;9.70;99.90;;;;;;4951286;29;20051;-76
2021/12/15 01:59:52;;;;;;;114.70;29.10;;;9.70;99.90;;;;;;4935101;29;20055;-75
2021/12/15 02:02:18;;;;;;;90.25;24.65;;;9.70;99.90;;;;;;4951184;28;20523;-75
2021/12/15 02:04:45;;;;;;;109.25;27.95;;;9.70;99.90;;;;;;4953791;28;20058;-76
2021/12/15 02:07:15;;;;;;;91.40;25.60;;;9.70;99.90;;;;;;4951941;28;20094;-78
2021/12/15 02:12:24;;;;;;;82.03;23.67;;;9.70;99.90;;;;;;4970076;28;20121;-76
2021/12/15 02:14:51;;;;;;;92.38;24.02;;;9.70;99.90;;;;;;4953938;28;20105;-79
2021/12/15 02:17:17;;;;;;;94.85;25.10;;;9.70;99.90;;;;;;4969780;28;20065;-76
2021/12/15 02:19:44;;;;;;;92.18;26.45;;;9.70;99.90;;;;;;4970882;28;20069;-75
2021/12/15 02:22:10;;;;;;;92.75;24.45;;;9.70;99.90;;;;;;4950592;28;20047;-83
2021/12/15 02:24:37;;;;;;;91.93;24.52;;;9.70;99.90;;;;;;4971051;28;20081;-75
2021/12/15 02:27:05;;;;;;;78.35;22.85;;;9.70;99.90;;;;;;4940008;29;20150;-78
2021/12/15 02:29:36;;;;;;;88.85;23.05;;;9.70;99.90;;;;;;4952910;28;20086;-76
2021/12/15 02:32:26;;;;;;;88.50;24.63;;;9.70;99.90;;;;;;4953519;28;20137;-75
2021/12/15 02:37:15;;;;;;;87.97;22.88;;;9.60;99.90;;;;;;4970363;28;20498;-76
2021/12/15 02:37:53;;;;;;;88.10;23.60;;;9.60;99.90;;;;;;4951679;28;20054;-75
2021/12/15 02:40:20;;;;;;;83.30;23.38;;;9.60;99.90;;;;;;4952286;28;20047;-75
2021/12/15 02:42:48;;;;;;;89.20;25.20;;;9.60;99.90;;;;;;4937892;28;20105;-75
2021/12/15 02:45:21;;;;;;;84.38;23.25;;;9.60;99.90;;;;;;4952901;28;20155;-75
2021/12/15 02:47:47;;;;;;;80.07;21.83;;;9.60;99.90;;;;;;4951066;28;20059;-76
2021/12/15 02:50:18;;;;;;;87.28;24.20;;;9.60;99.90;;;;;;4952570;28;20065;-81
2021/12/15 02:52:44;;;;;;;89.85;24.73;;;9.60;99.90;;;;;;4951936;28;20424;-75
2021/12/15 02:55:12;;;;;;;;;;;9.60;99.90;;;;;;4970545;28;20055;-80
2021/12/15 02:57:38;;;;;;;76.80;23.30;;;9.60;99.90;;;;;;4970476;28;19922;-76
2021/12/15 03:00:17;;;;;;;74.45;21.40;;;9.60;99.90;;;;;;4953305;28;20057;-75
2021/12/15 03:05:38;;;;;;;82.22;22.98;;;9.50;99.90;;;;;;4952358;28;20519;-75
2021/12/15 03:16:02;;;;;;;93.05;24.58;;;9.60;99.90;;;;;;4939010;28;20086;-79
2021/12/15 03:18:29;;;;;;;89.85;27.98;;;9.50;99.90;;;;;;4969856;28;20055;-77
2021/12/15 03:21:04;;;;;;;91.07;23.23;;;9.60;99.90;;;;;;4969490;28;20047;-82
2021/12/15 03:23:46;;;;;;;94.97;25.92;;;9.60;99.90;;;;;;4952175;28;20061;-77
2021/12/15 03:26:17;;;;;;;95.45;25.95;;;9.60;99.90;;;;;;4933766;29;20057;-81
2021/12/15 03:35:03;;;;;;;93.43;25.15;;;9.60;99.90;;;;;;4950736;28;20059;-76
2021/12/15 03:39:46;;;;;;;93.28;27.73;;;9.60;99.90;;;;;;4953653;29;20146;-75
2021/12/15 03:42:17;;;;;;;108.63;31.95;;;9.50;99.90;;;;;;4936856;29;20047;-76
2021/12/15 03:44:44;;;;;;;98.80;27.13;;;9.60;99.90;;;;;;4954499;29;20082;-75
2021/12/15 03:47:16;;;;;;;96.55;27.70;;;9.60;99.90;;;;;;4937170;29;20493;-76
2021/12/15 03:49:42;;;;;;;108.97;32.65;;;9.60;99.90;;;;;;4937288;29;20465;-77
2021/12/15 03:52:10;;;;;;;112.38;30.92;;;9.60;99.90;;;;;;4954486;28;20051;-76
2021/12/15 03:54:36;;;;;;;115.68;30.98;;;9.50;99.90;;;;;;4972884;28;20038;-76
2021/12/15 03:57:02;;;;;;;105.50;29.35;;;9.60;99.90;;;;;;4939678;28;20047;-76
2021/12/15 03:59:28;;;;;;;98.10;26.75;;;9.60;99.90;;;;;;4955741;28;20089;-79
2021/12/15 04:01:55;;;;;;;126.47;33.88;;;9.60;99.90;;;;;;4972918;28;20058;-75
2021/12/15 04:04:22;;;;;;;105.55;30.40;;;9.60;99.90;;;;;;4955880;28;20058;-75
2021/12/15 04:06:47;;;;;;;;;;;9.60;99.90;;;;;;4954959;28;20124;-76
2021/12/15 04:09:15;;;;;;;110.32;29.67;;;9.60;99.90;;;;;;4955865;28;19925;-74
2021/12/15 04:11:41;;;;;;;106.53;27.85;;;9.50;99.90;;;;;;4972241;28;20051;-76
2021/12/15 04:14:19;;;;;;;119.57;33.15;;;9.60;99.90;;;;;;4973069;28;20046;-76
2021/12/15 04:16:58;;;;;;;100.55;27.42;;;9.60;99.90;;;;;;4955659;28;20114;-76
2021/12/15 04:19:23;;;;;;;112.28;31.77;;;9.50;99.90;;;;;;4955391;28;20086;-76
2021/12/15 04:21:49;;;;;;;104.72;30.60;;;9.50;99.90;;;;;;4953767;28;20050;-77
2021/12/15 04:24:17;;;;;;;111.60;32.88;;;9.50;99.90;;;;;;4973074;28;20480;-76
2021/12/15 04:26:45;;;;;;;97.45;28.35;;;9.60;99.90;;;;;;4954953;28;20062;-75
2021/12/15 04:29:10;;;;;;;113.43;32.67;;;9.60;99.90;;;;;;4972911;28;20286;-78
2021/12/15 04:31:40;;;;;;;90.13;28.48;;;9.50;99.90;;;;;;4971980;28;20544;-78
2021/12/15 04:34:09;;;;;;;110.30;30.75;;;9.50;99.90;;;;;;4955499;28;20459;-75
2021/12/15 04:36:39;;;;;;;104.20;30.20;;;9.50;99.90;;;;;;4970856;28;20051;-75
2021/12/15 04:39:08;;;;;;;105.60;30.90;;;9.50;99.90;;;;;;4954064;28;20499;-76
2021/12/15 04:41:34;;;;;;;117.93;30.42;;;9.50;99.90;;;;;;4945110;29;20150;-77
2021/12/15 04:44:01;;;;;;;;;;;9.50;99.90;;;;;;4936810;29;20058;-76
2021/12/15 04:46:36;;;;;;;118.57;33.25;;;9.50;99.90;;;;;;4934732;29;20324;-76
2021/12/15 04:49:04;;;;;;;116.38;34.67;;;9.50;99.90;;;;;;4953133;29;20047;-77
2021/12/15 04:51:30;;;;;;;113.63;33.17;;;9.50;99.90;;;;;;4951147;29;20055;-75
2021/12/15 04:53:57;;;;;;;111.78;32.42;;;9.50;99.90;;;;;;4953367;29;20043;-75
2021/12/15 04:56:25;;;;;;;107.32;31.60;;;9.50;99.90;;;;;;4955176;28;20181;-76
2021/12/15 04:58:54;;;;;;;114.05;32.33;;;9.50;99.90;;;;;;4972550;28;20094;-75
2021/12/15 05:01:22;;;;;;;111.68;33.00;;;9.50;99.90;;;;;;4954741;28;20079;-82
2021/12/15 05:03:48;;;;;;;116.65;35.83;;;9.50;99.90;;;;;;4939368;28;20108;-75
2021/12/15 05:06:14;;;;;;;120.18;37.22;;;9.50;99.90;;;;;;4954321;28;20476;-75
2021/12/15 05:08:41;;;;;;;105.18;35.00;;;9.50;99.90;;;;;;4971325;28;20081;-77
2021/12/15 05:11:08;;;;;;;116.25;33.58;;;9.50;99.90;;;;;;4971651;28;20067;-78
2021/12/15 05:13:36;;;;;;;117.07;35.47;;;9.50;99.90;;;;;;4953940;28;20133;-75
2021/12/15 05:16:03;;;;;;;115.07;34.92;;;9.50;99.90;;;;;;4971640;28;20130;-75
2021/12/15 05:18:29;;;;;;;113.57;37.97;;;9.50;99.90;;;;;;4954135;28;20071;-76
2021/12/15 05:20:57;;;;;;;103.55;32.17;;;9.50;99.90;;;;;;4953800;28;20053;-78
2021/12/15 05:23:28;;;;;;;114.07;35.72;;;9.50;99.90;;;;;;4970897;28;20055;-78
2021/12/15 05:25:56;;;;;;;105.28;34.60;;;9.50;99.90;;;;;;4954332;28;20141;-75
2021/12/15 05:28:22;;;;;;;120.45;37.35;;;9.50;99.90;;;;;;4971196;28;20073;-82
2021/12/15 05:30:48;;;;;;;112.05;35.50;;;9.50;99.90;;;;;;4954751;28;20492;-76
2021/12/15 05:33:14;;;;;;;112.28;33.45;;;9.50;99.90;;;;;;4970648;28;20042;-75
2021/12/15 05:35:40;;;;;;;;;;;9.60;99.90;;;;;;4971681;28;20150;-75
2021/12/15 05:38:07;;;;;;;110.95;34.17;;;9.50;99.90;;;;;;4953054;28;20061;-75
2021/12/15 05:40:35;;;;;;;118.03;36.53;;;9.50;99.90;;;;;;4970516;28;20051;-76
2021/12/15 05:43:01;;;;;;;109.03;36.33;;;9.50;99.90;;;;;;4970700;28;20086;-78
2021/12/15 05:45:30;;;;;;;108.60;35.80;;;9.50;99.90;;;;;;4953631;28;20058;-76
2021/12/15 05:47:57;;;;;;;106.35;34.75;;;9.50;99.90;;;;;;4971140;28;20046;-76
2021/12/15 05:50:25;;;;;;;103.43;32.90;;;9.50;99.90;;;;;;4953658;28;20194;-82
2021/12/15 05:52:51;;;;;;;106.18;35.67;;;9.50;99.90;;;;;;4970144;28;20039;-75
2021/12/15 05:55:18;;;;;;;109.93;37.35;;;9.50;99.90;;;;;;4969957;28;20484;-75
2021/12/15 05:57:46;;;;;;;112.32;37.88;;;9.50;99.90;;;;;;4952674;28;20058;-77
2021/12/15 06:00:19;;;;;;;108.78;36.90;;;9.50;99.90;;;;;;4938253;28;20055;-76
2021/12/15 06:02:45;;;;;;;101.80;33.15;;;9.50;99.90;;;;;;4953312;28;20634;-76
2021/12/15 06:05:12;;;;;;;103.57;35.15;;;9.50;99.90;;;;;;4953919;28;20101;-76
2021/12/15 06:07:39;;;;;;;96.65;33.45;;;9.50;99.90;;;;;;4969285;28;20058;-75
2021/12/15 06:10:08;;;;;;;95.85;33.05;;;9.50;99.90;;;;;;4953010;28;20059;-75
2021/12/15 06:12:34;;;;;;;111.10;37.80;;;9.50;99.90;;;;;;4953040;28;20389;-75
2021/12/15 06:15:00;;;;;;;115.35;35.88;;;9.50;99.90;;;;;;4953648;28;20050;-76
2021/12/15 06:17:26;;;;;;;115.07;37.17;;;9.50;99.90;;;;;;4952852;28;20047;-83
2021/12/15 06:19:57;;;;;;;115.53;38.03;;;9.50;99.90;;;;;;4949640;29;20134;-75
2021/12/15 06:22:28;;;;;;;118.38;39.38;;;9.50;99.90;;;;;;4953473;28;20130;-75
2021/12/15 06:24:56;;;;;;;105.57;32.85;;;9.50;99.90;;;;;;4953592;28;20051;-77
2021/12/15 06:27:23;;;;;;;108.57;36.10;;;9.50;99.90;;;;;;4953256;28;20050;-77
2021/12/15 06:29:52;;;;;;;98.78;33.08;;;9.50;99.90;;;;;;4970282;28;20127;-76
2021/12/15 06:32:19;;;;;;;107.97;34.35;;;9.50;99.90;;;;;;4969395;28;20058;-77
2021/12/15 06:34:46;;;;;;;106.65;34.85;;;9.50;99.90;;;;;;4970137;28;20047;-77
2021/12/15 06:37:13;;;;;;;102.80;33.35;;;9.50;99.90;;;;;;4969258;28;20046;-77
2021/12/15 06:39:39;;;;;;;109.28;34.22;;;9.50;99.90;;;;;;4952806;28;20068;-77
2021/12/15 06:42:05;;;;;;;;;;;9.50;99.90;;;;;;4970671;28;20046;-75
2021/12/15 06:44:30;;;;;;;109.03;34.88;;;9.50;99.90;;;;;;4936081;28;19922;-76
2021/12/15 06:47:20;;;;;;;105.47;34.28;;;9.50;99.90;;;;;;4970231;28;20053;-75
2021/12/15 06:57:29;;;;;;;95.72;31.67;;;9.50;99.90;;;;;;4968562;28;20063;-77
2021/12/15 06:58:17;;;;;;;115.57;40.25;;;9.50;99.90;;;;;;4951001;29;20516;-75
2021/12/15 07:00:48;;;;;;;115.05;37.45;;;9.50;99.90;;;;;;4959078;28;20090;-75
2021/12/15 07:03:16;;;;;;;114.72;39.10;;;9.50;99.90;;;;;;4970233;28;20054;-75
2021/12/15 07:05:43;;;;;;;106.88;35.28;;;9.50;99.90;;;;;;4969680;28;20055;-76
2021/12/15 07:08:10;;;;;;;112.88;36.22;;;9.50;99.90;;;;;;4951435;28;20059;-75
2021/12/15 07:10:39;;;;;;;108.63;36.42;;;9.50;99.90;;;;;;4972637;28;20094;-77
2021/12/15 07:13:06;;;;;;;108.65;32.05;;;9.50;99.90;;;;;;4974254;28;20054;-76
2021/12/15 07:15:34;;;;;;;101.80;34.65;;;9.40;99.90;;;;;;4973549;28;20051;-77
2021/12/15 07:18:04;;;;;;;105.53;35.03;;;9.50;99.90;;;;;;4973324;28;20047;-75
2021/12/15 07:20:48;;;;;;;106.97;33.97;;;9.60;99.90;;;;;;4954262;29;20050;-80
2021/12/15 07:23:17;;;;;;;103.50;34.92;;;9.60;99.90;;;;;;4907118;29;20055;-75
2021/12/15 07:25:46;;;;;;;103.35;34.80;;;9.60;99.90;;;;;;4966293;28;20057;-77
2021/12/15 07:28:13;;;;;;;108.28;34.80;;;9.50;99.90;;;;;;4957056;28;20098;-75
2021/12/15 07:30:40;;;;;;;93.72;31.60;;;9.60;99.90;;;;;;4940463;28;20562;-75
2021/12/15 07:33:06;;;;;;;;;;;9.50;99.90;;;;;;4941012;28;20086;-75
2021/12/15 07:35:33;;;;;;;104.20;33.47;;;9.60;99.90;;;;;;4938377;29;19969;-75
2021/12/15 07:37:59;;;;;;;94.95;31.80;;;9.50;99.90;;;;;;4936454;29;20175;-75
2021/12/15 07:40:25;;;;;;;106.80;35.92;;;9.50;99.90;;;;;;4953842;29;20084;-76
2021/12/15 07:43:23;;;;;;;93.93;32.38;;;9.50;99.90;;;;;;4953615;29;20461;-74
2021/12/15 07:45:52;;;;;;;109.47;34.40;;;9.60;99.90;;;;;;4952232;29;20051;-74
2021/12/15 07:48:21;;;;;;;105.15;34.05;;;9.50;99.90;;;;;;4949176;28;20066;-75
2021/12/15 07:50:50;;;;;;;100.82;30.63;;;9.60;99.90;;;;;;4942730;28;20132;-77
2021/12/15 07:53:18;;;;;;;107.28;36.17;;;9.60;99.90;;;;;;4955161;28;20055;-77
2021/12/15 07:55:45;;;;;;;97.57;30.10;;;9.60;99.90;;;;;;4955305;28;20065;-75
2021/12/15 07:58:12;;;;;;;97.55;32.90;;;9.60;99.90;;;;;;4955779;28;20066;-80
2021/12/15 08:00:40;;;;;;;93.53;29.52;;;9.60;99.90;;;;;;4948751;29;20131;-76
2021/12/15 08:03:06;;;;;;;96.07;29.90;;;9.60;99.90;;;;;;4956566;28;20039;-78
2021/12/15 08:05:34;;;;;;;92.00;32.17;;;9.60;99.90;;;;;;4967418;28;20057;-81
2021/12/15 08:08:01;;;;;;;101.20;32.17;;;9.60;99.90;;;;;;4945284;28;20105;-75
2021/12/15 08:10:26;;;;;;;93.60;29.17;;;9.60;99.90;;;;;;4960974;28;20065;-76
2021/12/15 08:12:52;;;;;;;104.65;32.47;;;9.60;99.90;;;;;;4954094;28;20043;-79
2021/12/15 08:15:18;;;;;;;113.15;38.05;;;9.60;99.90;;;;;;4948424;28;20079;-77
2021/12/15 08:17:51;;;;;;;103.63;33.28;;;9.60;99.90;;;;;;4971863;28;20130;-76
2021/12/15 08:20:19;;;;;;;94.45;30.98;;;9.60;99.90;;;;;;4971827;28;20149;-76
2021/12/15 08:22:45;;;;;;;104.07;34.67;;;9.60;99.90;;;;;;4938381;28;20456;-75
2021/12/15 08:25:13;;;;;;;92.45;29.75;;;9.60;99.90;;;;;;4972545;28;20047;-75
2021/12/15 08:27:40;;;;;;;93.75;32.53;;;9.60;99.90;;;;;;4955223;28;20058;-77
2021/12/15 08:30:09;;;;;;;96.25;32.03;;;9.60;99.90;;;;;;4955515;28;20118;-77
2021/12/15 08:32:35;;;;;;;109.57;38.20;;;9.60;99.90;;;;;;4952981;28;20133;-81
2021/12/15 08:35:01;;;;;;;99.65;30.95;;;9.70;99.90;;;;;;4962391;28;20105;-75
2021/12/15 08:37:27;;;;;;;96.25;32.67;;;9.60;99.90;;;;;;4971300;28;20055;-75
2021/12/15 08:39:53;;;;;;;104.72;32.75;;;9.70;99.90;;;;;;4971933;28;20051;-76
2021/12/15 08:42:19;;;;;;;94.13;30.88;;;9.60;99.90;;;;;;4972267;28;20050;-76
2021/12/15 08:44:46;;;;;;;95.72;32.17;;;9.60;99.90;;;;;;4972031;28;20043;-75
2021/12/15 08:47:12;;;;;;;94.85;29.92;;;9.70;99.90;;;;;;4955277;28;20387;-74
2021/12/15 08:49:39;;;;;;;102.85;33.88;;;9.70;99.90;;;;;;4972003;28;20109;-77
2021/12/15 08:52:06;;;;;;;102.43;36.42;;;9.70;99.90;;;;;;4953798;28;20058;-74
2021/12/15 08:54:32;;;;;;;109.93;34.67;;;9.70;99.90;;;;;;4972331;28;20837;-78
2021/12/15 08:56:58;;;;;;;94.38;29.60;;;9.70;99.90;;;;;;4950603;29;20086;-76
2021/12/15 08:59:24;;;;;;;97.32;31.48;;;9.70;99.90;;;;;;4953544;28;20090;-75
2021/12/15 09:01:52;;;;;;;92.05;29.55;;;9.70;99.90;;;;;;4954415;28;20065;-75
2021/12/15 09:04:18;;;;;;;101.82;31.77;;;9.70;99.90;;;;;;4945078;28;20055;-76
2021/12/15 09:06:46;;;;;;;93.15;30.55;;;9.70;99.90;;;;;;4953019;28;20054;-75
2021/12/15 09:09:13;;;;;;;87.00;29.85;;;9.80;99.90;;;;;;4935414;29;20138;-76
2021/12/15 09:11:40;;;;;;;91.15;31.15;;;9.70;99.90;;;;;;4918856;29;20508;-75
2021/12/15 09:14:06;;;;;;;;;;;9.80;99.90;;;;;;4936202;29;20055;-75
2021/12/15 09:16:35;;;;;;;100.65;30.38;;;9.80;99.90;;;;;;4952448;29;19926;-74
2021/12/15 09:19:05;;;;;;;92.63;27.90;;;9.80;99.90;;;;;;4952518;29;20109;-75
2021/12/15 09:21:33;;;;;;;88.18;27.92;;;9.80;99.90;;;;;;4970210;28;20050;-76
2021/12/15 09:24:01;;;;;;;84.18;30.13;;;9.80;99.90;;;;;;4966365;28;20400;-75
2021/12/15 09:26:27;;;;;;;87.10;27.08;;;9.80;99.90;;;;;;4950681;28;20053;-76
2021/12/15 09:28:53;;;;;;;90.18;31.55;;;9.80;99.90;;;;;;4953094;28;20065;-75
2021/12/15 09:31:19;;;;;;;92.45;30.95;;;9.80;99.90;;;;;;4938395;28;20043;-76
2021/12/15 09:33:46;;;;;;;;;;;9.80;99.90;;;;;;4938400;28;20042;-76
2021/12/15 09:36:13;;;;;;;93.05;30.75;;;9.80;99.90;;;;;;4970120;28;20040;-75
2021/12/15 09:38:41;;;;;;;95.35;28.70;;;9.80;99.90;;;;;;4968944;28;20447;-82
2021/12/15 09:41:11;;;;;;;85.97;30.08;;;9.90;99.90;;;;;;4938133;28;20463;-77
2021/12/15 09:43:37;;;;;;;84.13;27.85;;;9.90;99.90;;;;;;4970903;28;20066;-79
2021/12/15 09:46:13;;;;;;;96.07;32.03;;;9.90;99.90;;;;;;4935513;28;20051;-76
2021/12/15 09:57:07;;;;;;;91.13;27.92;;;10.00;99.90;;;;;;4954436;28;20465;-76
2021/12/15 10:19:26;;;;;;;86.38;26.30;;;10.20;99.90;;;;;;4961353;28;20082;-76
2021/12/15 10:22:17;;;;;;;84.50;27.63;;;10.20;99.90;;;;;;4969889;28;20058;-75
2021/12/15 10:24:53;;;;;;;74.43;26.33;;;10.20;99.90;;;;;;4969561;28;20059;-82
2021/12/15 10:27:50;;;;;;;82.63;28.10;;;10.20;99.90;;;;;;4954531;28;20042;-75
2021/12/15 10:30:30;;;;;;;78.80;28.95;;;10.20;99.90;;;;;;4971847;28;20138;-75
2021/12/15 10:33:15;;;;;;;83.13;27.35;;;10.20;99.90;;;;;;4953856;28;20061;-75
2021/12/15 10:35:47;;;;;;;76.55;25.83;;;10.20;99.90;;;;;;4954935;28;20047;-77
2021/12/15 10:38:28;;;;;;;78.38;28.23;;;10.20;99.90;;;;;;4937975;28;20554;-74
2021/12/15 10:41:07;;;;;;;77.55;26.42;;;10.10;99.90;;;;;;4953606;28;20051;-77
2021/12/15 10:43:57;;;;;;;77.32;28.63;;;10.10;99.90;;;;;;4971618;28;20050;-75
2021/12/15 10:46:34;;;;;;;76.82;27.67;;;10.10;99.90;;;;;;4953590;28;20042;-75
2021/12/15 10:49:09;;;;;;;83.20;26.77;;;10.10;99.90;;;;;;4937819;28;20059;-75
2021/12/15 10:51:59;;;;;;;80.22;26.25;;;10.10;99.90;;;;;;4953242;28;20125;-74
2021/12/15 10:54:32;;;;;;;73.53;24.20;;;10.10;99.90;;;;;;4937875;28;20125;-75
2021/12/15 10:56:58;;;;;;;74.53;25.13;;;10.10;99.90;;;;;;4953897;28;20061;-75
2021/12/15 10:59:27;;;;;;;67.07;25.42;;;10.20;99.90;;;;;;4972015;28;20051;-75
2021/12/15 11:01:52;;;;;;;70.47;24.77;;;10.20;99.90;;;;;;4969209;28;20126;-75
2021/12/15 11:04:28;;;;;;;65.88;24.45;;;10.20;99.90;;;;;;4965690;28;20153;-74
2021/12/15 11:07:18;;;;;;;59.38;21.88;;;10.20;99.90;;;;;;4948180;28;20109;-75
2021/12/15 11:10:10;;;;;;;68.32;26.60;;;10.20;99.90;;;;;;4953405;28;20055;-75
2021/12/15 11:12:50;;;;;;;61.63;24.70;;;10.30;99.90;;;;;;4951174;29;20489;-75
2021/12/15 11:15:27;;;;;;;69.93;25.45;;;10.40;99.90;;;;;;4952243;29;20047;-77
2021/12/15 11:18:02;;;;;;;62.70;26.10;;;10.40;99.90;;;;;;4950630;29;20059;-78
2021/12/15 11:20:29;;;;;;;60.83;26.05;;;10.40;99.90;;;;;;4944013;28;20059;-76
2021/12/15 11:22:55;;;;;;;63.65;24.02;;;10.40;99.90;;;;;;4946979;28;20492;-76
2021/12/15 11:25:29;;;;;;;48.92;21.00;;;10.50;99.90;;;;;;4954653;28;20105;-75
2021/12/15 11:28:01;;;;;;;54.17;22.65;;;10.50;99.90;;;;;;4963356;28;20074;-75
2021/12/15 11:30:44;;;;;;;51.08;21.08;;;10.50;99.90;;;;;;4963449;28;20046;-76
2021/12/15 11:33:15;;;;;;;56.53;22.13;;;10.60;99.90;;;;;;4947658;28;20763;-76
2021/12/15 11:35:50;;;;;;;54.22;21.80;;;10.50;99.90;;;;;;4966737;28;20100;-77
2021/12/15 11:38:26;;;;;;;42.15;17.80;;;10.50;99.90;;;;;;4933006;28;20079;-76
2021/12/15 11:41:02;;;;;;;51.78;21.48;;;10.60;99.90;;;;;;4949443;28;20051;-80
2021/12/15 11:43:36;;;;;;;;;;;10.60;99.90;;;;;;4954619;28;20051;-76
2021/12/15 11:46:16;;;;;;;49.28;18.75;;;10.60;99.90;;;;;;4933375;28;20398;-75
2021/12/15 11:48:42;;;;;;;47.90;19.58;;;10.60;99.90;;;;;;4953160;28;20051;-75
2021/12/15 11:51:09;;;;;;;51.50;19.90;;;10.60;99.90;;;;;;4937069;28;20482;-76
2021/12/15 11:53:37;;;;;;;53.05;20.20;;;10.60;99.90;;;;;;4933570;28;20126;-75
2021/12/15 11:56:29;;;;;;;51.28;20.73;;;10.60;99.90;;;;;;4934233;28;20142;-75
2021/12/15 11:59:02;;;;;;;56.97;22.50;;;10.60;99.90;;;;;;4941232;28;20061;-82
2021/12/15 12:01:46;;;;;;;53.47;21.80;;;10.60;99.90;;;;;;4951664;28;20054;-77
2021/12/15 12:04:27;;;;;;;53.65;22.13;;;10.60;99.90;;;;;;4968536;28;20396;-75
2021/12/15 12:07:15;;;;;;;45.55;17.85;;;10.60;99.90;;;;;;4951958;28;20393;-75
2021/12/15 12:09:45;;;;;;;49.80;21.20;;;10.60;99.90;;;;;;4962261;28;20086;-75
2021/12/15 12:12:12;;;;;;;50.33;20.52;;;10.50;99.90;;;;;;4943598;28;20054;-76
2021/12/15 12:14:51;;;;;;;48.35;17.58;;;10.50;99.90;;;;;;4963584;28;20051;-77
2021/12/15 12:17:27;;;;;;;57.65;22.67;;;10.50;99.90;;;;;;4952853;28;20150;-76
2021/12/15 12:19:59;;;;;;;51.30;20.02;;;10.50;99.90;;;;;;4970447;28;20094;-75
2021/12/15 12:22:28;;;;;;;49.35;18.45;;;10.50;99.90;;;;;;4947742;28;20054;-77
2021/12/15 12:24:57;;;;;;;49.78;19.73;;;10.60;99.90;;;;;;4956074;28;20074;-82
2021/12/15 12:27:26;;;;;;;46.40;19.08;;;10.60;99.90;;;;;;4953293;28;20045;-76
2021/12/15 12:29:58;;;;;;;44.63;18.92;;;10.60;99.90;;;;;;4952512;28;20075;-76
2021/12/15 12:32:24;;;;;;;46.90;20.45;;;10.60;99.90;;;;;;4961349;28;20114;-75
2021/12/15 12:34:52;;;;;;;44.13;17.00;;;10.60;99.90;;;;;;4958194;28;20042;-75
2021/12/15 12:37:18;;;;;;;34.58;15.15;;;10.60;99.90;;;;;;4970382;28;20338;-77
2021/12/15 12:39:54;;;;;;;36.33;15.63;;;10.70;99.90;;;;;;4974179;28;20096;-74
2021/12/15 12:42:38;;;;;;;38.67;16.85;;;10.70;99.90;;;;;;4972820;28;20053;-77
2021/12/15 12:45:40;;;;;;;27.45;12.75;;;10.70;99.90;;;;;;4955655;28;20069;-76
2021/12/15 12:59:48;;;;;;;34.00;14.38;;;10.60;99.90;;;;;;4953172;29;20134;-76
2021/12/15 13:02:35;;;;;;;32.55;15.13;;;10.60;99.90;;;;;;4955874;28;20055;-76
2021/12/15 13:05:01;;;;;;;32.97;13.90;;;10.60;99.90;;;;;;4973146;28;20340;-80
2021/12/15 13:07:52;;;;;;;36.67;14.23;;;10.60;99.90;;;;;;4954741;28;20594;-77
2021/12/15 13:10:19;;;;;;;37.47;14.30;;;10.50;99.90;;;;;;4972522;28;20174;-77
2021/12/15 13:12:49;;;;;;;29.23;13.10;;;10.50;99.90;;;;;;4956419;28;20066;-76
2021/12/15 13:15:22;;;;;;;34.15;14.80;;;10.50;99.90;;;;;;4956248;28;20097;-76
2021/12/15 13:17:59;;;;;;;26.10;12.57;;;10.50;99.90;;;;;;4973160;28;20050;-76
2021/12/15 13:20:30;;;;;;;33.42;14.00;;;10.50;99.90;;;;;;4972190;28;20062;-74
2021/12/15 13:23:31;;;;;;;33.90;14.70;;;10.60;99.90;;;;;;4955102;28;20058;-74
2021/12/15 13:31:25;;;;;;;28.35;13.25;;;10.50;99.90;;;;;;4972334;28;20046;-75
2021/12/15 13:33:57;;;;;;;29.17;12.88;;;10.50;99.90;;;;;;4973192;28;20051;-74
2021/12/15 13:36:30;;;;;;;30.52;14.70;;;10.50;99.90;;;;;;4938460;28;20049;-74
2021/12/15 13:38:57;;;;;;;33.55;14.48;;;10.40;99.90;;;;;;4973307;28;20046;-74
2021/12/15 13:41:41;;;;;;;33.28;14.40;;;10.40;99.90;;;;;;4971955;28;20050;-74
2021/12/15 13:44:30;;;;;;;26.85;11.15;;;10.40;99.90;;;;;;4971934;28;20133;-74
2021/12/15 13:47:08;;;;;;;32.53;13.85;;;10.40;99.90;;;;;;4972755;28;20058;-74
2021/12/15 13:49:46;;;;;;;29.67;13.63;;;10.40;99.90;;;;;;4955526;28;20754;-76
2021/12/15 13:52:16;;;;;;;27.67;12.93;;;10.40;99.90;;;;;;4954120;28;20057;-74
2021/12/15 13:54:45;;;;;;;21.75;10.18;;;10.40;99.90;;;;;;4955008;28;20082;-73
2021/12/15 13:57:14;;;;;;;24.40;11.50;;;10.40;99.90;;;;;;4971734;28;20124;-73
2021/12/15 14:00:04;;;;;;;24.58;10.82;;;10.40;99.90;;;;;;4954422;28;20432;-74
2021/12/15 14:02:37;;;;;;;28.00;11.48;;;10.40;99.90;;;;;;4946945;28;20058;-73
2021/12/15 14:05:19;;;;;;;26.83;11.18;;;10.40;99.90;;;;;;4954874;28;20065;-79
2021/12/15 14:08:06;;;;;;;19.05;9.38;;;10.40;99.90;;;;;;4953642;28;20085;-75
2021/12/15 14:10:31;;;;;;;;;;;10.40;99.90;;;;;;4969244;28;20058;-74
2021/12/15 14:13:02;;;;;;;13.27;5.95;;;10.40;99.90;;;;;;4954779;28;20383;-74
2021/12/15 14:15:28;;;;;;;17.33;7.78;;;10.30;99.90;;;;;;4971614;28;20050;-74